Peekskill, New York
Current Conditions -  °F | °C
As of 5:45 PM on Tuesday 25 Nov 2014 (Local Time) from KSWF Reporting Station
Scattered Clouds Scattered Clouds  
Wind Chill:   Ceiling: Unl
Heat Index:   Visibility: 10mi
Dew Point: -1°   Wind: 0mph
Humidity: 57%   Direction: NA
Pressure: 30.02"   Gusts: NA
Location:  41.29°N, 73.92°W
Report Text: KSWF 252245Z 00000KT 10SM SCT100 07/M01 A3002
Loading
Personal Weather Stations






























Interactive Weather Map New forecast layout! Learn more

10-Day Weather Forecast

Advertisements
Track Severe Weather on mobile